Time;durP1;ratioP1;P1;durP2;ratioP2;P2;SDS_P1;SDS_P2;PMS_P1;PMS_P2;Temp;Humidity;BMP_temperature;BMP_pressure;BME280_temperature;BME280_humidity;BME280_pressure;Samples;Min_cycle;Max_cycle;Signal;HPM_P1;HPM_P2
2021/12/10 00:00:11;;;;;;;0.70;0.70;;;;;;;;;;5084574;28;20245;-67
2021/12/10 00:02:45;;;;;;;0.63;0.63;;;;;;;;;;5081624;28;20213;-68
2021/12/10 00:05:13;;;;;;;0.70;0.70;;;;;;;;;;5083963;28;20213;-68
2021/12/10 00:07:42;;;;;;;0.77;0.77;;;;;;;;;;5080873;28;20214;-68
2021/12/10 00:10:13;;;;;;;0.77;0.77;;;;;;;;;;5084846;28;20211;-68
2021/12/10 00:12:44;;;;;;;1.03;0.93;;;;;;;;;;5081469;28;20207;-68
2021/12/10 00:15:12;;;;;;;1.20;0.67;;;;;;;;;;5081525;28;20206;-68
2021/12/10 00:17:39;;;;;;;2.67;0.97;;;;;;;;;;5083070;28;20564;-68
2021/12/10 00:20:08;;;;;;;0.60;0.60;;;;;;;;;;5083432;28;20234;-68
2021/12/10 00:22:40;;;;;;;2.23;0.90;;;;;;;;;;5081462;28;20199;-68
2021/12/10 00:25:09;;;;;;;0.60;0.60;;;;;;;;;;5079257;28;20306;-68
2021/12/10 00:27:37;;;;;;;1.00;1.00;;;;;;;;;;5080438;28;20223;-68
2021/12/10 00:30:08;;;;;;;0.50;0.50;;;;;;;;;;5080394;28;20235;-68
2021/12/10 00:32:38;;;;;;;0.60;0.60;;;;;;;;;;5082310;28;20203;-67
2021/12/10 00:35:07;;;;;;;1.27;0.70;;;;;;;;;;5081731;28;20259;-68
2021/12/10 00:37:34;;;;;;;2.00;0.60;;;;;;;;;;5082728;28;20573;-68
2021/12/10 00:40:02;;;;;;;3.67;0.80;;;;;;;;;;5079603;28;20210;-68
2021/12/10 00:42:31;;;;;;;0.70;0.70;;;;;;;;;;5081270;28;20210;-68
2021/12/10 00:45:00;;;;;;;2.23;0.80;;;;;;;;;;5081103;28;20650;-68
2021/12/10 00:47:28;;;;;;;0.73;0.73;;;;;;;;;;5083694;28;20225;-68
2021/12/10 00:49:55;;;;;;;3.33;0.70;;;;;;;;;;5090870;28;20208;-68
2021/12/10 00:52:23;;;;;;;0.77;0.77;;;;;;;;;;5090410;28;20260;-68
2021/12/10 00:54:51;;;;;;;1.87;0.80;;;;;;;;;;5090641;28;20202;-68
2021/12/10 00:57:18;;;;;;;1.70;0.73;;;;;;;;;;5089466;28;20202;-68
2021/12/10 00:59:46;;;;;;;2.23;0.87;;;;;;;;;;5091063;28;20200;-68
2021/12/10 01:02:16;;;;;;;1.77;1.23;;;;;;;;;;5090269;28;20202;-67
2021/12/10 01:04:44;;;;;;;1.90;1.13;;;;;;;;;;5090308;28;20205;-68
2021/12/10 01:07:14;;;;;;;1.33;0.70;;;;;;;;;;5090440;28;20232;-68
2021/12/10 01:09:44;;;;;;;3.27;1.07;;;;;;;;;;5090879;28;20208;-68
2021/12/10 01:12:13;;;;;;;4.43;1.10;;;;;;;;;;5090441;28;20218;-68
2021/12/10 01:14:57;;;;;;;1.60;0.83;;;;;;;;;;5085207;28;20200;-68
2021/12/10 01:25:54;;;;;;;1.40;0.80;;;;;;;;;;5089859;28;20252;-68
2021/12/10 01:28:21;;;;;;;4.73;1.10;;;;;;;;;;5090242;28;20668;-68
2021/12/10 01:30:48;;;;;;;0.90;0.90;;;;;;;;;;5090191;28;20240;-68
2021/12/10 01:33:18;;;;;;;1.07;0.90;;;;;;;;;;5089897;28;20236;-68
2021/12/10 01:35:49;;;;;;;3.23;1.10;;;;;;;;;;5089498;28;20706;-68
2021/12/10 01:38:16;;;;;;;5.20;1.13;;;;;;;;;;5089095;28;20320;-68
2021/12/10 01:40:47;;;;;;;4.70;0.73;;;;;;;;;;5090414;28;20213;-67
2021/12/10 01:43:22;;;;;;;2.60;1.20;;;;;;;;;;5090349;28;20575;-67
2021/12/10 01:45:50;;;;;;;1.33;1.10;;;;;;;;;;5089104;28;20212;-68
2021/12/10 01:48:20;;;;;;;2.93;1.13;;;;;;;;;;5089820;28;20207;-67
2021/12/10 01:50:47;;;;;;;2.13;1.23;;;;;;;;;;5088875;28;20206;-67
2021/12/10 01:53:16;;;;;;;1.10;0.67;;;;;;;;;;5089876;28;20206;-68
2021/12/10 01:55:45;;;;;;;2.33;1.03;;;;;;;;;;5089505;28;20203;-68
2021/12/10 01:58:13;;;;;;;2.30;1.20;;;;;;;;;;5089850;28;20210;-68
2021/12/10 02:00:41;;;;;;;1.87;0.80;;;;;;;;;;5089517;28;20210;-68
2021/12/10 02:03:08;;;;;;;0.80;0.80;;;;;;;;;;5087306;28;20237;-67
2021/12/10 02:05:37;;;;;;;0.53;0.53;;;;;;;;;;5086759;28;20413;-67
2021/12/10 02:08:04;;;;;;;0.80;0.80;;;;;;;;;;5087732;28;20620;-67
2021/12/10 02:10:32;;;;;;;2.20;0.80;;;;;;;;;;5088152;28;20207;-68
2021/12/10 02:13:00;;;;;;;0.87;0.60;;;;;;;;;;5088480;28;20213;-68
2021/12/10 02:15:28;;;;;;;5.77;0.90;;;;;;;;;;5088909;28;20208;-68
2021/12/10 02:17:57;;;;;;;2.93;1.10;;;;;;;;;;5089518;28;20202;-67
2021/12/10 02:20:25;;;;;;;1.47;0.53;;;;;;;;;;5089630;28;20211;-68
2021/12/10 02:22:54;;;;;;;0.90;0.90;;;;;;;;;;5089252;28;20618;-67
2021/12/10 02:25:22;;;;;;;0.73;0.73;;;;;;;;;;5089222;28;20314;-68
2021/12/10 02:27:50;;;;;;;0.70;0.70;;;;;;;;;;5088308;28;20576;-67
2021/12/10 02:30:18;;;;;;;0.77;0.73;;;;;;;;;;5089234;28;20242;-68
2021/12/10 02:32:45;;;;;;;5.50;0.77;;;;;;;;;;5089295;28;20225;-68
2021/12/10 02:35:14;;;;;;;0.97;0.60;;;;;;;;;;5089216;28;20198;-68
2021/12/10 02:37:42;;;;;;;0.80;0.60;;;;;;;;;;5088721;28;20201;-68
2021/12/10 02:40:12;;;;;;;0.47;0.47;;;;;;;;;;5087834;28;20209;-68
2021/12/10 02:42:39;;;;;;;4.73;0.60;;;;;;;;;;5088565;28;20577;-67
2021/12/10 02:45:07;;;;;;;1.53;0.70;;;;;;;;;;5089448;28;20204;-68
2021/12/10 02:47:34;;;;;;;2.27;0.70;;;;;;;;;;5093088;28;20293;-68
2021/12/10 02:50:02;;;;;;;0.33;0.33;;;;;;;;;;5093167;28;20213;-67
2021/12/10 02:52:29;;;;;;;0.67;0.40;;;;;;;;;;5092917;28;20580;-67
2021/12/10 02:54:58;;;;;;;2.13;0.67;;;;;;;;;;5093035;28;20213;-67
2021/12/10 02:57:27;;;;;;;0.80;0.80;;;;;;;;;;5092911;28;20194;-67
2021/12/10 02:59:54;;;;;;;1.60;0.53;;;;;;;;;;5092371;28;20206;-68
2021/12/10 03:02:24;;;;;;;1.30;0.37;;;;;;;;;;5092832;28;20204;-68
2021/12/10 03:04:51;;;;;;;0.57;0.50;;;;;;;;;;5092934;28;20198;-67
2021/12/10 03:07:20;;;;;;;3.00;0.50;;;;;;;;;;5092957;28;20239;-67
2021/12/10 03:09:48;;;;;;;3.10;0.80;;;;;;;;;;5092998;28;20220;-67
2021/12/10 03:12:17;;;;;;;3.30;0.40;;;;;;;;;;5092933;28;20583;-67
2021/12/10 03:14:47;;;;;;;5.10;0.40;;;;;;;;;;5092912;28;20199;-68
2021/12/10 03:17:16;;;;;;;2.27;0.40;;;;;;;;;;5092929;28;20213;-68
2021/12/10 03:19:43;;;;;;;0.40;0.40;;;;;;;;;;5092179;28;20202;-67
2021/12/10 03:22:10;;;;;;;0.53;0.40;;;;;;;;;;5092589;28;20209;-67
2021/12/10 03:24:37;;;;;;;0.83;0.53;;;;;;;;;;5092755;28;20673;-67
2021/12/10 03:27:06;;;;;;;1.13;1.03;;;;;;;;;;5092511;28;20218;-67
2021/12/10 03:29:35;;;;;;;3.83;1.47;;;;;;;;;;5092066;28;20297;-67
2021/12/10 03:32:05;;;;;;;0.57;0.57;;;;;;;;;;5091381;28;20209;-68
2021/12/10 03:34:33;;;;;;;1.90;0.93;;;;;;;;;;5092154;28;20227;-68
2021/12/10 03:37:01;;;;;;;0.80;0.80;;;;;;;;;;5092444;28;20203;-67
2021/12/10 03:39:28;;;;;;;3.20;0.43;;;;;;;;;;5092499;28;20209;-67
2021/12/10 03:41:57;;;;;;;0.87;0.87;;;;;;;;;;5091823;28;20234;-67
2021/12/10 03:44:24;;;;;;;0.87;0.87;;;;;;;;;;5091266;28;20234;-67
2021/12/10 03:46:52;;;;;;;3.73;0.83;;;;;;;;;;5090599;28;20232;-67
2021/12/10 03:49:21;;;;;;;0.37;0.37;;;;;;;;;;5092156;28;20696;-68
2021/12/10 03:51:48;;;;;;;2.73;1.00;;;;;;;;;;5092164;28;20284;-67
2021/12/10 03:54:16;;;;;;;0.67;0.67;;;;;;;;;;5092004;28;20198;-68
2021/12/10 03:56:43;;;;;;;0.60;0.60;;;;;;;;;;5091595;28;20208;-67
2021/12/10 03:59:12;;;;;;;1.73;0.87;;;;;;;;;;5092110;28;20264;-68
2021/12/10 04:01:41;;;;;;;0.60;0.50;;;;;;;;;;5091402;28;20216;-67
2021/12/10 04:04:10;;;;;;;2.97;0.67;;;;;;;;;;5091367;28;20210;-67
2021/12/10 04:06:38;;;;;;;0.40;0.40;;;;;;;;;;5091753;28;20198;-67
2021/12/10 04:09:06;;;;;;;0.40;0.40;;;;;;;;;;5091089;28;20620;-67
2021/12/10 04:11:33;;;;;;;0.67;0.67;;;;;;;;;;5090725;28;20263;-67
2021/12/10 04:14:00;;;;;;;1.90;0.70;;;;;;;;;;5090974;28;20209;-68
2021/12/10 04:16:29;;;;;;;1.33;0.50;;;;;;;;;;5089835;28;20225;-67
2021/12/10 04:18:57;;;;;;;0.57;0.57;;;;;;;;;;5090368;28;20195;-67
2021/12/10 04:21:24;;;;;;;1.40;0.40;;;;;;;;;;5090829;28;20206;-67
2021/12/10 04:23:53;;;;;;;2.83;0.80;;;;;;;;;;5090480;28;20212;-67
2021/12/10 04:26:23;;;;;;;0.50;0.50;;;;;;;;;;5089052;28;20682;-67
2021/12/10 04:28:50;;;;;;;0.70;0.70;;;;;;;;;;5088072;28;20250;-67
2021/12/10 04:31:17;;;;;;;1.67;0.80;;;;;;;;;;5090539;28;20209;-67
2021/12/10 04:33:44;;;;;;;1.27;0.87;;;;;;;;;;5090115;28;20268;-67
2021/12/10 04:36:12;;;;;;;0.57;0.57;;;;;;;;;;5090595;28;20562;-68
2021/12/10 04:38:39;;;;;;;0.60;0.53;;;;;;;;;;5076041;28;20203;-67
2021/12/10 04:41:09;;;;;;;0.90;0.90;;;;;;;;;;5090575;28;20206;-68
2021/12/10 04:43:38;;;;;;;0.43;0.43;;;;;;;;;;5090284;28;20211;-67
2021/12/10 04:46:06;;;;;;;0.47;0.47;;;;;;;;;;5090330;28;20221;-68
2021/12/10 04:48:44;;;;;;;0.70;0.50;;;;;;;;;;5090673;28;20245;-67
2021/12/10 04:51:11;;;;;;;1.33;0.57;;;;;;;;;;5083204;28;20206;-67
2021/12/10 04:53:38;;;;;;;0.50;0.50;;;;;;;;;;5090858;28;20239;-68
2021/12/10 04:56:05;;;;;;;0.90;0.60;;;;;;;;;;5089355;28;20304;-68
2021/12/10 04:58:33;;;;;;;0.70;0.70;;;;;;;;;;5090777;28;20557;-68
2021/12/10 05:01:03;;;;;;;0.20;0.20;;;;;;;;;;5089877;28;20202;-67
2021/12/10 05:03:30;;;;;;;1.60;0.30;;;;;;;;;;5089954;28;20206;-67
2021/12/10 05:06:02;;;;;;;4.60;0.90;;;;;;;;;;5089732;28;20206;-68
2021/12/10 05:08:29;;;;;;;0.57;0.37;;;;;;;;;;5088938;28;20251;-68
2021/12/10 05:10:56;;;;;;;0.83;0.83;;;;;;;;;;5090076;28;20217;-67
2021/12/10 05:13:23;;;;;;;0.97;0.50;;;;;;;;;;5089899;28;20203;-68
2021/12/10 05:15:56;;;;;;;0.97;0.47;;;;;;;;;;5089182;28;20256;-68
2021/12/10 05:18:24;;;;;;;0.90;0.60;;;;;;;;;;5089697;28;20210;-67
2021/12/10 05:20:51;;;;;;;0.60;0.43;;;;;;;;;;5089543;28;20206;-68
2021/12/10 05:23:18;;;;;;;1.03;0.50;;;;;;;;;;5089607;28;20213;-67
2021/12/10 05:25:45;;;;;;;3.80;0.80;;;;;;;;;;5089472;28;20214;-68
2021/12/10 05:28:13;;;;;;;0.70;0.60;;;;;;;;;;5089356;28;20222;-67
2021/12/10 05:30:40;;;;;;;1.23;0.70;;;;;;;;;;5089431;28;20237;-68
2021/12/10 05:33:14;;;;;;;0.50;0.47;;;;;;;;;;5089430;28;20218;-67
2021/12/10 05:35:42;;;;;;;0.80;0.60;;;;;;;;;;5089865;28;20260;-68
2021/12/10 05:38:09;;;;;;;0.53;0.50;;;;;;;;;;5089553;28;20201;-68
2021/12/10 05:40:36;;;;;;;0.87;0.80;;;;;;;;;;5089492;28;20255;-68
2021/12/10 05:43:04;;;;;;;2.10;1.50;;;;;;;;;;5089512;28;20206;-68
2021/12/10 05:45:31;;;;;;;1.60;0.80;;;;;;;;;;5089467;28;20206;-68
2021/12/10 05:47:59;;;;;;;1.00;0.80;;;;;;;;;;5089059;28;20276;-67
2021/12/10 05:50:28;;;;;;;1.60;1.50;;;;;;;;;;5077861;28;20212;-67
2021/12/10 05:52:55;;;;;;;0.73;0.50;;;;;;;;;;5089393;28;20263;-67
2021/12/10 05:55:22;;;;;;;0.87;0.70;;;;;;;;;;5087429;28;20215;-68
2021/12/10 05:57:50;;;;;;;0.50;0.50;;;;;;;;;;5089177;28;20221;-67
2021/12/10 06:00:18;;;;;;;1.83;1.00;;;;;;;;;;5088742;28;20266;-68
2021/12/10 06:02:46;;;;;;;0.83;0.83;;;;;;;;;;5089365;28;20285;-68
2021/12/10 06:05:13;;;;;;;0.40;0.40;;;;;;;;;;5089268;28;20299;-68
2021/12/10 06:07:41;;;;;;;0.43;0.43;;;;;;;;;;5089284;28;20235;-68
2021/12/10 06:10:09;;;;;;;2.00;0.67;;;;;;;;;;5088557;28;20528;-68
2021/12/10 06:12:36;;;;;;;0.53;0.53;;;;;;;;;;5082666;28;20202;-68
2021/12/10 06:15:04;;;;;;;0.60;0.60;;;;;;;;;;5086958;28;20205;-67
2021/12/10 06:17:31;;;;;;;0.70;0.70;;;;;;;;;;5089011;28;20303;-67
2021/12/10 06:19:59;;;;;;;0.50;0.50;;;;;;;;;;5089132;28;20217;-68
2021/12/10 06:22:26;;;;;;;0.30;0.30;;;;;;;;;;5088919;28;20691;-68
2021/12/10 06:24:54;;;;;;;1.13;0.47;;;;;;;;;;5087935;28;20827;-67
2021/12/10 06:27:21;;;;;;;0.60;0.60;;;;;;;;;;5088277;28;20267;-67
2021/12/10 06:29:49;;;;;;;0.40;0.40;;;;;;;;;;5088379;28;20237;-67
2021/12/10 06:32:16;;;;;;;0.40;0.40;;;;;;;;;;5088265;28;20210;-63
2021/12/10 06:34:43;;;;;;;1.07;0.70;;;;;;;;;;5086423;28;20226;-65
2021/12/10 06:37:10;;;;;;;1.00;0.50;;;;;;;;;;5088894;28;20209;-66
2021/12/10 06:39:37;;;;;;;0.63;0.63;;;;;;;;;;5088340;28;20209;-65
2021/12/10 06:42:06;;;;;;;0.40;0.30;;;;;;;;;;5088455;28;20253;-65
2021/12/10 06:44:33;;;;;;;3.80;0.53;;;;;;;;;;5088798;28;20217;-62
2021/12/10 06:47:00;;;;;;;0.60;0.60;;;;;;;;;;5087723;28;20207;-68
2021/12/10 06:49:27;;;;;;;1.13;0.80;;;;;;;;;;5088611;28;20224;-67
2021/12/10 06:51:54;;;;;;;0.90;0.83;;;;;;;;;;5086931;28;20209;-67
2021/12/10 06:54:21;;;;;;;1.70;0.53;;;;;;;;;;5088291;28;20215;-68
2021/12/10 06:56:50;;;;;;;0.40;0.40;;;;;;;;;;5088545;28;20209;-67
2021/12/10 06:59:18;;;;;;;0.53;0.53;;;;;;;;;;5088435;28;20213;-67
2021/12/10 07:01:46;;;;;;;0.57;0.57;;;;;;;;;;5088540;28;20984;-68
2021/12/10 07:04:14;;;;;;;0.67;0.67;;;;;;;;;;5088167;28;20214;-68
2021/12/10 07:06:42;;;;;;;0.50;0.50;;;;;;;;;;5087930;28;20209;-67
2021/12/10 07:09:12;;;;;;;0.50;0.50;;;;;;;;;;5087239;28;20713;-68
2021/12/10 07:11:39;;;;;;;0.33;0.33;;;;;;;;;;5088151;28;20608;-66
2021/12/10 07:14:06;;;;;;;0.70;0.57;;;;;;;;;;5088046;28;20213;-67
2021/12/10 07:16:35;;;;;;;0.60;0.60;;;;;;;;;;5088356;28;20204;-67
2021/12/10 07:19:03;;;;;;;0.40;0.40;;;;;;;;;;5087258;28;20205;-66
2021/12/10 07:21:31;;;;;;;1.23;1.13;;;;;;;;;;5088162;28;20210;-69
2021/12/10 07:23:59;;;;;;;0.50;0.50;;;;;;;;;;5088385;28;20241;-67
2021/12/10 07:26:27;;;;;;;0.87;0.70;;;;;;;;;;5088097;28;20227;-68
2021/12/10 07:28:54;;;;;;;0.77;0.73;;;;;;;;;;5087862;28;20286;-68
2021/12/10 07:31:21;;;;;;;0.50;0.50;;;;;;;;;;5082631;28;20811;-68
2021/12/10 07:33:49;;;;;;;0.60;0.40;;;;;;;;;;5091652;28;20227;-67
2021/12/10 07:36:16;;;;;;;0.30;0.30;;;;;;;;;;5091662;28;20215;-67
2021/12/10 07:38:45;;;;;;;0.67;0.63;;;;;;;;;;5090029;28;20673;-70
2021/12/10 07:41:12;;;;;;;0.53;0.53;;;;;;;;;;5090859;28;20211;-68
2021/12/10 07:43:40;;;;;;;0.40;0.40;;;;;;;;;;5091423;28;20610;-67
2021/12/10 07:46:07;;;;;;;0.70;0.70;;;;;;;;;;5090826;28;20320;-68
2021/12/10 07:48:35;;;;;;;1.73;0.80;;;;;;;;;;5071127;28;20236;-67
2021/12/10 07:51:06;;;;;;;2.77;1.10;;;;;;;;;;5071187;28;20665;-68
2021/12/10 07:53:34;;;;;;;0.90;0.90;;;;;;;;;;5071168;28;20217;-67
2021/12/10 07:56:02;;;;;;;0.73;0.73;;;;;;;;;;5071142;28;20226;-68
2021/12/10 07:58:29;;;;;;;5.60;1.80;;;;;;;;;;5073587;28;20218;-67
2021/12/10 08:00:57;;;;;;;1.57;1.43;;;;;;;;;;5091224;28;20270;-67
2021/12/10 08:03:24;;;;;;;1.70;1.30;;;;;;;;;;5091206;28;20717;-68
2021/12/10 08:05:52;;;;;;;1.83;1.03;;;;;;;;;;5090967;28;20209;-70
2021/12/10 08:08:20;;;;;;;3.70;1.57;;;;;;;;;;5090318;28;20222;-69
2021/12/10 08:10:47;;;;;;;1.10;1.10;;;;;;;;;;5086893;28;20205;-69
2021/12/10 08:13:15;;;;;;;2.10;1.60;;;;;;;;;;5088864;28;20209;-69
2021/12/10 08:15:42;;;;;;;3.17;1.77;;;;;;;;;;5090740;28;20200;-69
2021/12/10 08:18:09;;;;;;;2.07;1.13;;;;;;;;;;5090957;28;20219;-69
2021/12/10 08:20:37;;;;;;;1.60;1.50;;;;;;;;;;5090654;28;20218;-68
2021/12/10 08:23:04;;;;;;;3.57;1.00;;;;;;;;;;5090622;28;20212;-68
2021/12/10 08:25:33;;;;;;;1.97;1.77;;;;;;;;;;5090670;28;20562;-69
2021/12/10 08:28:00;;;;;;;3.30;1.30;;;;;;;;;;5084692;28;20202;-68
2021/12/10 08:30:28;;;;;;;0.63;0.63;;;;;;;;;;5070427;28;20265;-69
2021/12/10 08:32:56;;;;;;;0.70;0.70;;;;;;;;;;5070362;28;20244;-68
2021/12/10 08:35:24;;;;;;;3.33;1.33;;;;;;;;;;5070177;28;20218;-68
2021/12/10 08:37:51;;;;;;;0.93;0.93;;;;;;;;;;5079670;28;20206;-68
2021/12/10 08:40:21;;;;;;;5.10;0.90;;;;;;;;;;5081436;28;20692;-68
2021/12/10 08:42:49;;;;;;;1.30;0.63;;;;;;;;;;5078296;28;20236;-68
2021/12/10 08:45:18;;;;;;;1.93;1.37;;;;;;;;;;5071509;28;20439;-68
2021/12/10 08:47:46;;;;;;;0.80;0.80;;;;;;;;;;5070444;28;20882;-68
2021/12/10 08:50:16;;;;;;;8.60;5.47;;;;;;;;;;5070072;28;20230;-68
2021/12/10 08:52:43;;;;;;;12.27;6.60;;;;;;;;;;5085308;28;20219;-68
2021/12/10 08:55:11;;;;;;;6.23;2.93;;;;;;;;;;5089873;28;20214;-69
2021/12/10 08:57:38;;;;;;;11.20;5.60;;;;;;;;;;5090241;28;20296;-70
2021/12/10 09:00:08;;;;;;;11.40;7.67;;;;;;;;;;5090035;28;20267;-68
2021/12/10 09:02:37;;;;;;;3.30;2.67;;;;;;;;;;5090199;28;20233;-69
2021/12/10 09:05:05;;;;;;;6.53;2.10;;;;;;;;;;5090002;28;20236;-69
2021/12/10 09:07:32;;;;;;;6.10;1.63;;;;;;;;;;5089837;28;20699;-69
2021/12/10 09:09:59;;;;;;;1.03;1.03;;;;;;;;;;5089669;28;20244;-69
2021/12/10 09:12:28;;;;;;;3.03;2.50;;;;;;;;;;5089983;28;20221;-73
2021/12/10 09:14:57;;;;;;;2.33;1.77;;;;;;;;;;5090140;28;20301;-64
2021/12/10 09:17:27;;;;;;;3.13;1.13;;;;;;;;;;5090324;28;20210;-68
2021/12/10 09:19:55;;;;;;;6.37;1.23;;;;;;;;;;5090461;28;20224;-69
2021/12/10 09:22:23;;;;;;;2.43;2.00;;;;;;;;;;5090290;28;20214;-68
2021/12/10 09:24:51;;;;;;;2.10;1.40;;;;;;;;;;5090352;28;20646;-70
2021/12/10 09:27:18;;;;;;;2.83;1.50;;;;;;;;;;5090341;28;20296;-69
2021/12/10 09:29:47;;;;;;;0.73;0.50;;;;;;;;;;5090223;28;20249;-69
2021/12/10 09:32:15;;;;;;;1.17;1.10;;;;;;;;;;5090463;28;20220;-64
2021/12/10 09:34:44;;;;;;;1.20;1.20;;;;;;;;;;5089466;28;20202;-65
2021/12/10 09:37:11;;;;;;;1.73;1.57;;;;;;;;;;5090001;28;20675;-62
2021/12/10 09:39:39;;;;;;;2.10;0.70;;;;;;;;;;5089934;28;20210;-65
2021/12/10 09:42:06;;;;;;;3.77;1.40;;;;;;;;;;5089803;28;20212;-68
2021/12/10 09:44:34;;;;;;;0.60;0.60;;;;;;;;;;5088053;28;20207;-68
2021/12/10 09:47:01;;;;;;;0.97;0.97;;;;;;;;;;5089848;28;20213;-68
2021/12/10 09:49:29;;;;;;;0.57;0.57;;;;;;;;;;5089751;28;20357;-69
2021/12/10 09:51:58;;;;;;;2.27;1.40;;;;;;;;;;5089043;28;20217;-68
2021/12/10 09:54:26;;;;;;;0.97;0.83;;;;;;;;;;5089260;28;20214;-68
2021/12/10 09:56:55;;;;;;;4.27;0.77;;;;;;;;;;5089482;28;20271;-68
2021/12/10 09:59:22;;;;;;;0.60;0.60;;;;;;;;;;5089490;28;20202;-68
2021/12/10 10:01:52;;;;;;;0.57;0.57;;;;;;;;;;5071795;28;20302;-69
2021/12/10 10:04:21;;;;;;;2.30;0.70;;;;;;;;;;5073257;28;20267;-68
2021/12/10 10:06:51;;;;;;;0.10;0.10;;;;;;;;;;5089299;28;20731;-68
2021/12/10 10:09:20;;;;;;;0.60;0.60;;;;;;;;;;5089201;28;20226;-68
2021/12/10 10:11:48;;;;;;;1.63;0.77;;;;;;;;;;5088697;28;20205;-68
2021/12/10 10:14:15;;;;;;;0.57;0.50;;;;;;;;;;5089038;28;20221;-68
2021/12/10 10:16:44;;;;;;;0.87;0.60;;;;;;;;;;5086943;28;20206;-68
2021/12/10 10:19:11;;;;;;;0.23;0.23;;;;;;;;;;5088847;28;20213;-68
2021/12/10 10:21:41;;;;;;;0.30;0.30;;;;;;;;;;5088697;28;20213;-69
2021/12/10 10:24:09;;;;;;;0.40;0.40;;;;;;;;;;5088643;28;20222;-68
2021/12/10 10:26:38;;;;;;;0.77;0.70;;;;;;;;;;5088538;28;20221;-68
2021/12/10 10:29:08;;;;;;;1.03;0.77;;;;;;;;;;5087349;28;20704;-68
2021/12/10 10:31:36;;;;;;;2.33;0.90;;;;;;;;;;5088608;28;20214;-68
2021/12/10 10:34:05;;;;;;;0.73;0.73;;;;;;;;;;5088403;28;20225;-68
2021/12/10 10:36:34;;;;;;;0.93;0.93;;;;;;;;;;5088812;28;20611;-67
2021/12/10 10:39:05;;;;;;;0.60;0.60;;;;;;;;;;5088707;28;20572;-68
2021/12/10 10:41:33;;;;;;;1.90;1.47;;;;;;;;;;5088590;28;20210;-68
2021/12/10 10:44:02;;;;;;;1.97;1.13;;;;;;;;;;5088486;28;20698;-66
2021/12/10 10:46:29;;;;;;;1.70;0.73;;;;;;;;;;5089268;28;20218;-69
2021/12/10 10:48:56;;;;;;;0.47;0.47;;;;;;;;;;5089286;28;20222;-66
2021/12/10 10:51:27;;;;;;;0.50;0.50;;;;;;;;;;5089200;28;20206;-65
2021/12/10 10:53:55;;;;;;;1.57;0.50;;;;;;;;;;5089078;28;20221;-66
2021/12/10 10:56:29;;;;;;;0.30;0.30;;;;;;;;;;5089085;28;20252;-68
2021/12/10 10:59:00;;;;;;;0.20;0.20;;;;;;;;;;5084928;28;20557;-67
2021/12/10 11:01:32;;;;;;;1.90;0.77;;;;;;;;;;5069053;28;20203;-68
2021/12/10 11:04:03;;;;;;;0.63;0.63;;;;;;;;;;5076858;28;20203;-67
2021/12/10 11:06:31;;;;;;;2.70;0.80;;;;;;;;;;5090095;28;20733;-67
2021/12/10 11:09:06;;;;;;;0.73;0.40;;;;;;;;;;5093111;28;20214;-67
2021/12/10 11:11:35;;;;;;;0.83;0.83;;;;;;;;;;5081684;28;20691;-67
2021/12/10 11:14:04;;;;;;;1.17;0.63;;;;;;;;;;5085732;28;20685;-66
2021/12/10 11:16:33;;;;;;;0.30;0.30;;;;;;;;;;5082020;28;20222;-66
2021/12/10 11:19:04;;;;;;;3.30;0.57;;;;;;;;;;5092809;28;20209;-66
2021/12/10 11:21:39;;;;;;;0.50;0.50;;;;;;;;;;5088971;28;20232;-67
2021/12/10 11:24:10;;;;;;;0.40;0.40;;;;;;;;;;5071715;28;20672;-67
2021/12/10 11:26:48;;;;;;;5.27;0.80;;;;;;;;;;5084765;28;20210;-69
2021/12/10 11:29:29;;;;;;;0.57;0.50;;;;;;;;;;5078694;28;20230;-67
2021/12/10 11:32:02;;;;;;;0.30;0.23;;;;;;;;;;5092379;28;20648;-66
2021/12/10 11:34:50;;;;;;;0.50;0.40;;;;;;;;;;5092379;28;20684;-67
2021/12/10 11:37:19;;;;;;;3.73;0.40;;;;;;;;;;5090980;28;20203;-66
2021/12/10 11:39:47;;;;;;;0.97;0.70;;;;;;;;;;5091590;28;20703;-66
2021/12/10 11:42:33;;;;;;;4.40;1.03;;;;;;;;;;5092103;28;20222;-67
2021/12/10 11:45:17;;;;;;;1.17;0.70;;;;;;;;;;5091758;28;20253;-66
2021/12/10 11:47:48;;;;;;;2.63;1.80;;;;;;;;;;5071990;28;20581;-66
2021/12/10 11:50:19;;;;;;;0.40;0.40;;;;;;;;;;5071731;28;20255;-66
2021/12/10 11:52:46;;;;;;;2.83;1.00;;;;;;;;;;5088940;28;20237;-66
2021/12/10 11:55:13;;;;;;;0.83;0.83;;;;;;;;;;5091876;28;20215;-67
2021/12/10 11:57:42;;;;;;;2.03;1.20;;;;;;;;;;5091488;28;20210;-67
2021/12/10 12:00:10;;;;;;;0.83;0.70;;;;;;;;;;5084386;28;20217;-68
2021/12/10 12:02:46;;;;;;;0.80;0.80;;;;;;;;;;5071399;28;20210;-68
2021/12/10 12:05:16;;;;;;;3.60;1.70;;;;;;;;;;5077913;28;20675;-68
2021/12/10 12:07:43;;;;;;;1.13;1.03;;;;;;;;;;5091675;28;20202;-67
2021/12/10 12:10:18;;;;;;;7.40;1.70;;;;;;;;;;5091466;28;20234;-68
2021/12/10 12:12:46;;;;;;;0.67;0.67;;;;;;;;;;5091664;28;20245;-66
2021/12/10 12:15:16;;;;;;;2.30;1.30;;;;;;;;;;5091198;28;20214;-67
2021/12/10 12:17:44;;;;;;;0.63;0.63;;;;;;;;;;5091142;28;20212;-66
2021/12/10 12:20:25;;;;;;;1.37;1.00;;;;;;;;;;5091078;28;20211;-67
2021/12/10 12:25:44;;;;;;;1.10;0.40;;;;;;;;;;5088827;28;20788;-67
2021/12/10 12:28:13;;;;;;;0.30;0.30;;;;;;;;;;5088439;28;20271;-63
2021/12/10 12:31:07;;;;;;;0.53;0.53;;;;;;;;;;5084680;28;20243;-66
2021/12/10 12:33:50;;;;;;;0.70;0.70;;;;;;;;;;5031901;28;20225;-67
2021/12/10 12:36:19;;;;;;;0.60;0.50;;;;;;;;;;5078301;28;20206;-68
2021/12/10 12:38:48;;;;;;;0.60;0.60;;;;;;;;;;5084527;28;20210;-68
2021/12/10 12:41:18;;;;;;;0.80;0.80;;;;;;;;;;5081906;28;20964;-67
2021/12/10 12:43:47;;;;;;;0.63;0.63;;;;;;;;;;5090439;28;20613;-67
2021/12/10 12:46:14;;;;;;;0.37;0.37;;;;;;;;;;5089908;28;20222;-67
2021/12/10 12:48:55;;;;;;;0.40;0.40;;;;;;;;;;5090368;28;20207;-65
2021/12/10 12:51:23;;;;;;;0.50;0.50;;;;;;;;;;5090117;28;20232;-67
2021/12/10 12:53:51;;;;;;;0.67;0.60;;;;;;;;;;5090251;28;20210;-66
2021/12/10 12:56:21;;;;;;;0.50;0.50;;;;;;;;;;5090000;28;20664;-65
2021/12/10 12:58:49;;;;;;;1.00;0.60;;;;;;;;;;5090060;28;20260;-68
2021/12/10 13:01:21;;;;;;;0.40;0.40;;;;;;;;;;5090393;28;20203;-68
2021/12/10 13:03:50;;;;;;;3.10;0.80;;;;;;;;;;5077908;28;20202;-66
2021/12/10 13:06:19;;;;;;;0.87;0.47;;;;;;;;;;5089855;28;20672;-67
2021/12/10 13:08:54;;;;;;;1.20;0.70;;;;;;;;;;5086308;28;20233;-66
2021/12/10 13:11:25;;;;;;;0.77;0.77;;;;;;;;;;5075334;28;20738;-71
2021/12/10 13:13:54;;;;;;;0.43;0.43;;;;;;;;;;5082307;28;20210;-66
2021/12/10 13:16:31;;;;;;;0.63;0.63;;;;;;;;;;5089673;28;20220;-66
2021/12/10 13:18:58;;;;;;;0.50;0.40;;;;;;;;;;5090273;28;20263;-67
2021/12/10 13:21:25;;;;;;;1.67;0.90;;;;;;;;;;5081134;28;20212;-67
2021/12/10 13:23:54;;;;;;;0.87;0.60;;;;;;;;;;5089935;28;20212;-67
2021/12/10 13:26:21;;;;;;;5.40;0.97;;;;;;;;;;5089784;28;20217;-68
2021/12/10 13:28:48;;;;;;;0.63;0.63;;;;;;;;;;5088804;28;20212;-67
2021/12/10 13:31:16;;;;;;;2.67;0.50;;;;;;;;;;5074735;28;20223;-66
2021/12/10 13:33:44;;;;;;;0.70;0.70;;;;;;;;;;5076776;28;20237;-67
2021/12/10 13:36:12;;;;;;;0.60;0.60;;;;;;;;;;5089853;28;20279;-66
2021/12/10 13:38:40;;;;;;;0.57;0.50;;;;;;;;;;5086082;28;20611;-70
2021/12/10 13:41:10;;;;;;;2.67;0.60;;;;;;;;;;5088976;28;20220;-68
2021/12/10 13:43:39;;;;;;;1.63;0.50;;;;;;;;;;5080741;28;20206;-66
2021/12/10 13:46:10;;;;;;;0.87;0.57;;;;;;;;;;5089369;28;20209;-69
2021/12/10 13:48:41;;;;;;;1.43;0.50;;;;;;;;;;5085816;28;20211;-71
2021/12/10 13:51:08;;;;;;;0.63;0.63;;;;;;;;;;5086189;28;20444;-71
2021/12/10 13:53:36;;;;;;;0.10;0.10;;;;;;;;;;5090144;28;20213;-63
2021/12/10 13:56:05;;;;;;;4.70;0.40;;;;;;;;;;5083778;28;20209;-68
2021/12/10 13:58:38;;;;;;;0.20;0.20;;;;;;;;;;5089542;28;20252;-67
2021/12/10 14:01:07;;;;;;;0.70;0.70;;;;;;;;;;5088284;28;20203;-67
2021/12/10 14:03:38;;;;;;;0.50;0.50;;;;;;;;;;5088365;28;21061;-68
2021/12/10 14:06:05;;;;;;;0.20;0.20;;;;;;;;;;5089642;28;20198;-66
2021/12/10 14:08:33;;;;;;;2.10;0.87;;;;;;;;;;5089401;28;20206;-66
2021/12/10 14:11:11;;;;;;;0.20;0.20;;;;;;;;;;5089761;28;20241;-66
2021/12/10 14:13:41;;;;;;;0.50;0.50;;;;;;;;;;5088692;28;20229;-66
2021/12/10 14:16:11;;;;;;;0.60;0.60;;;;;;;;;;5081413;28;20202;-67
2021/12/10 14:18:39;;;;;;;0.50;0.50;;;;;;;;;;5089374;28;20202;-67
2021/12/10 14:21:07;;;;;;;0.55;0.47;;;;;;;;;;5081789;28;20462;-67
2021/12/10 14:23:36;;;;;;;0.23;0.23;;;;;;;;;;5081318;28;20225;-68
2021/12/10 14:26:04;;;;;;;0.23;0.23;;;;;;;;;;5075095;28;20276;-66
2021/12/10 14:28:35;;;;;;;0.30;0.30;;;;;;;;;;5084001;28;20209;-66
2021/12/10 14:31:04;;;;;;;2.30;0.30;;;;;;;;;;5066151;28;20239;-68
2021/12/10 14:33:33;;;;;;;1.07;0.27;;;;;;;;;;5077230;28;20232;-66
2021/12/10 14:36:03;;;;;;;0.40;0.40;;;;;;;;;;5082935;28;20213;-65
2021/12/10 14:38:52;;;;;;;0.50;0.50;;;;;;;;;;5083667;28;20221;-68
2021/12/10 14:41:21;;;;;;;0.10;0.10;;;;;;;;;;5081820;28;20259;-66
2021/12/10 14:43:50;;;;;;;0.37;0.37;;;;;;;;;;5087904;28;20668;-67
2021/12/10 14:46:24;;;;;;;0.13;0.13;;;;;;;;;;5089093;28;20221;-67
2021/12/10 14:49:02;;;;;;;1.20;0.40;;;;;;;;;;5089045;28;20224;-74
2021/12/10 14:51:29;;;;;;;1.20;0.67;;;;;;;;;;5087655;28;20233;-67
2021/12/10 14:54:03;;;;;;;1.23;0.50;;;;;;;;;;5085599;28;20224;-66
2021/12/10 14:56:33;;;;;;;0.53;0.40;;;;;;;;;;5088325;28;20218;-65
2021/12/10 14:59:05;;;;;;;1.33;1.03;;;;;;;;;;5082118;28;20684;-68
2021/12/10 15:01:35;;;;;;;0.63;0.60;;;;;;;;;;5088670;28;20206;-75
2021/12/10 15:04:04;;;;;;;0.77;0.77;;;;;;;;;;5086953;28;20206;-69